createdAt,value
2017-09-11T00:00:30.984Z,75.71
2017-09-11T00:01:39.811Z,75.81
2017-09-11T00:02:48.638Z,75.52
2017-09-11T00:03:57.472Z,76
2017-09-11T00:05:06.303Z,76.39
2017-09-11T00:06:15.129Z,76.1
2017-09-11T00:07:23.959Z,76.29
2017-09-11T00:08:32.790Z,76.57
2017-09-11T00:09:41.619Z,76.29
2017-09-11T00:10:50.774Z,76.25
2017-09-11T00:11:59.604Z,76.73
2017-09-11T00:13:08.430Z,76.73
2017-09-11T00:14:17.257Z,76.77
2017-09-11T00:15:26.090Z,76.86
2017-09-11T00:16:34.923Z,76.54
2017-09-11T00:17:43.755Z,76.96
2017-09-11T00:18:52.580Z,76.29
2017-09-11T00:20:01.404Z,76.44
2017-09-11T00:21:10.235Z,76.35
2017-09-11T00:22:19.066Z,76.15
2017-09-11T00:23:27.920Z,76.15
2017-09-11T00:24:36.725Z,76.25
2017-09-11T00:25:45.552Z,76.25
2017-09-11T00:26:54.383Z,76.44
2017-09-11T00:28:03.215Z,76.44
2017-09-11T00:29:12.050Z,76.25
2017-09-11T00:30:20.875Z,76.25
2017-09-11T00:31:29.698Z,76.25
2017-09-11T00:32:38.528Z,76.54
2017-09-11T00:33:47.360Z,76.25
2017-09-11T00:34:56.226Z,76.15
2017-09-11T00:36:05.027Z,76.35
2017-09-11T00:37:13.852Z,76.35
2017-09-11T00:38:22.680Z,76.25
2017-09-11T00:39:31.514Z,76.35
2017-09-11T00:40:40.340Z,76.35
2017-09-11T00:41:49.174Z,76.25
2017-09-11T00:42:57.992Z,76.25
2017-09-11T00:44:06.822Z,76.15
2017-09-11T00:45:15.649Z,76.15
2017-09-11T00:46:24.478Z,76.25
2017-09-11T00:47:33.305Z,76.35
2017-09-11T00:48:42.132Z,76.35
2017-09-11T00:49:50.957Z,76.35
2017-09-11T00:50:59.792Z,76.25
2017-09-11T00:52:08.615Z,76.54
2017-09-11T00:53:17.443Z,76.44
2017-09-11T00:54:26.273Z,76.44
2017-09-11T00:55:35.104Z,76.25
2017-09-11T00:56:43.932Z,76.06
2017-09-11T00:57:52.759Z,76.44
2017-09-11T00:59:01.594Z,76.25
2017-09-11T01:00:10.425Z,76.25
2017-09-11T01:01:19.254Z,76.54
2017-09-11T01:02:28.079Z,76.35
2017-09-11T01:03:36.934Z,76.15
2017-09-11T01:04:45.735Z,76.64
2017-09-11T01:05:54.562Z,76.73
2017-09-11T01:07:03.393Z,76.92
2017-09-11T01:08:12.219Z,76.82
2017-09-11T01:09:21.050Z,76.64
2017-09-11T01:10:29.874Z,76.54
2017-09-11T01:11:38.702Z,76.73
2017-09-11T01:12:47.534Z,76.64
2017-09-11T01:13:56.361Z,77.02
2017-09-11T01:15:05.184Z,76.92
2017-09-11T01:16:14.018Z,77.11
2017-09-11T01:17:22.846Z,76.92
2017-09-11T01:18:31.677Z,76.82
2017-09-11T01:19:40.510Z,76.82
2017-09-11T01:20:49.341Z,76.82
2017-09-11T01:21:58.170Z,76.82
2017-09-11T01:23:06.997Z,77.02
2017-09-11T01:24:15.823Z,76.92
2017-09-11T01:25:24.655Z,77.21
2017-09-11T01:26:33.490Z,77.46
2017-09-11T01:27:42.315Z,77.46
2017-09-11T01:28:51.145Z,77.55
2017-09-11T01:29:59.979Z,77.17
2017-09-11T01:31:08.805Z,77.26
2017-09-11T01:32:17.633Z,78.13
2017-09-11T01:33:26.464Z,77.84
2017-09-11T01:34:35.291Z,78.03
2017-09-11T01:35:44.118Z,77.75
2017-09-11T01:36:52.950Z,77.88
2017-09-11T01:38:01.780Z,78.27
2017-09-11T01:39:10.612Z,78.36
2017-09-11T01:40:19.434Z,78.51
2017-09-11T01:41:28.260Z,78.42
2017-09-11T01:42:37.087Z,78.36
2017-09-11T01:43:45.918Z,78.36
2017-09-11T01:44:54.749Z,77.75
2017-09-11T01:46:03.580Z,78.13
2017-09-11T01:47:12.406Z,78.32
2017-09-11T01:48:21.236Z,78.55
2017-09-11T01:49:30.064Z,78.13
2017-09-11T01:50:38.898Z,78.22
2017-09-11T01:51:47.729Z,78.51
2017-09-11T01:52:56.555Z,78.61
2017-09-11T01:54:05.381Z,78.7
2017-09-11T01:55:14.205Z,78.7
2017-09-11T01:56:23.363Z,78.8
2017-09-11T01:57:32.191Z,78.8
2017-09-11T01:58:41.024Z,78.89
2017-09-11T01:59:49.850Z,78.89
2017-09-11T02:00:58.678Z,78.8
2017-09-11T02:02:07.508Z,78.7
2017-09-11T02:03:16.330Z,78.61
2017-09-11T02:04:25.159Z,78.7
2017-09-11T02:05:33.986Z,78.99
2017-09-11T02:06:42.815Z,79.18
2017-09-11T02:07:51.641Z,79.08
2017-09-11T02:09:00.470Z,79.08
2017-09-11T02:10:09.299Z,79.28
2017-09-11T02:11:18.126Z,79.57
2017-09-11T02:12:26.955Z,79.66
2017-09-11T02:13:35.781Z,79.75
2017-09-11T02:14:44.612Z,79.66
2017-09-11T02:15:53.440Z,79.57
2017-09-11T02:17:02.265Z,79.66
2017-09-11T02:18:11.094Z,79.57
2017-09-11T02:19:19.921Z,80.33
2017-09-11T02:20:28.750Z,80.14
2017-09-11T02:21:37.576Z,80.14
2017-09-11T02:22:46.729Z,80.24
2017-09-11T02:23:55.553Z,80.33
2017-09-11T02:25:04.383Z,80.33
2017-09-11T02:26:13.213Z,80.43
2017-09-11T02:27:22.076Z,80.71
2017-09-11T02:28:30.867Z,80.71
2017-09-11T02:29:39.699Z,81
2017-09-11T02:30:48.521Z,80.81
2017-09-11T02:31:57.351Z,80.43
2017-09-11T02:33:06.179Z,80.9
2017-09-11T02:34:15.012Z,80.9
2017-09-11T02:35:23.833Z,81
2017-09-11T02:36:32.661Z,80.67
2017-09-11T02:37:41.483Z,80.67
2017-09-11T02:38:50.314Z,80.9
2017-09-11T02:39:59.148Z,80.81
2017-09-11T02:41:07.972Z,81.25
2017-09-11T02:42:16.799Z,81.15
2017-09-11T02:43:25.636Z,81.25
2017-09-11T02:44:34.461Z,81.05
2017-09-11T02:45:43.288Z,81.15
2017-09-11T02:46:52.115Z,81.44
2017-09-11T02:48:00.949Z,81.54
2017-09-11T02:49:09.777Z,81.44
2017-09-11T02:50:18.603Z,81.25
2017-09-11T02:51:27.429Z,81.34
2017-09-11T02:52:36.262Z,81.44
2017-09-11T02:53:45.085Z,81.05
2017-09-11T02:54:53.917Z,81.25
2017-09-11T02:56:02.748Z,81.63
2017-09-11T02:57:11.575Z,81.73
2017-09-11T02:58:20.403Z,81.63
2017-09-11T02:59:29.226Z,81.92
2017-09-11T03:00:38.058Z,82.01
2017-09-11T03:01:46.887Z,81.63
2017-09-11T03:02:55.713Z,81.92
2017-09-11T03:04:04.547Z,81.82
2017-09-11T03:05:13.381Z,81.73
2017-09-11T03:06:22.205Z,81.82
2017-09-11T03:07:31.033Z,81.73
2017-09-11T03:08:39.858Z,81.73
2017-09-11T03:09:48.678Z,82.2
2017-09-11T03:10:57.511Z,81.73
2017-09-11T03:12:06.343Z,81.92
2017-09-11T03:13:15.167Z,81.82
2017-09-11T03:14:23.999Z,82.2
2017-09-11T03:15:32.822Z,82.78
2017-09-11T03:16:41.649Z,82.49
2017-09-11T03:17:50.481Z,82.49
2017-09-11T03:18:59.309Z,82.3
2017-09-11T03:20:08.135Z,82.2
2017-09-11T03:21:16.966Z,82.3
2017-09-11T03:22:25.789Z,82.59
2017-09-11T03:23:34.612Z,82.49
2017-09-11T03:24:43.445Z,82.78
2017-09-11T03:25:52.271Z,82.68
2017-09-11T03:27:01.096Z,82.87
2017-09-11T03:28:10.574Z,82.78
2017-09-11T03:29:19.399Z,82.78
2017-09-11T03:30:28.229Z,83.16
2017-09-11T03:31:37.057Z,82.68
2017-09-11T03:32:45.886Z,82.78
2017-09-11T03:33:54.713Z,83.06
2017-09-11T03:35:03.535Z,82.87
2017-09-11T03:36:12.359Z,82.68
2017-09-11T03:37:21.188Z,82.78
2017-09-11T03:38:30.017Z,83.45
2017-09-11T03:39:38.848Z,83.26
2017-09-11T03:40:47.674Z,83.36
2017-09-11T03:41:56.495Z,83.06
2017-09-11T03:43:05.329Z,83.26
2017-09-11T03:44:14.152Z,83.16
2017-09-11T03:45:22.985Z,83.36
2017-09-11T03:46:31.810Z,83.26
2017-09-11T03:47:40.638Z,83.06
2017-09-11T03:48:49.460Z,83.54
2017-09-11T03:49:58.287Z,83.16
2017-09-11T03:51:07.113Z,83.54
2017-09-11T03:52:15.943Z,83.83
2017-09-11T03:53:24.770Z,83.45
2017-09-11T03:54:33.593Z,83.54
2017-09-11T03:55:42.422Z,83.73
2017-09-11T03:56:51.253Z,83.45
2017-09-11T03:58:00.404Z,83.73
2017-09-11T03:59:09.237Z,83.54
2017-09-11T04:00:18.066Z,83.64
2017-09-11T04:01:26.939Z,83.64
2017-09-11T04:02:36.098Z,83.64
2017-09-11T04:03:44.924Z,83.93
2017-09-11T04:04:53.752Z,83.64
2017-09-11T04:06:02.578Z,83.54
2017-09-11T04:07:11.410Z,83.73
2017-09-11T04:08:20.237Z,84.12
2017-09-11T04:09:29.060Z,83.93
2017-09-11T04:10:37.892Z,83.73
2017-09-11T04:11:46.720Z,83.64
2017-09-11T04:12:55.547Z,83.64
2017-09-11T04:14:04.377Z,83.64
2017-09-11T04:15:13.202Z,83.45
2017-09-11T04:16:22.025Z,83.54
2017-09-11T04:17:30.859Z,83.64
2017-09-11T04:18:39.689Z,83.73
2017-09-11T04:19:48.515Z,83.83
2017-09-11T04:20:57.339Z,83.64
2017-09-11T04:22:06.165Z,83.64
2017-09-11T04:23:14.993Z,83.83
2017-09-11T04:24:23.823Z,83.54
2017-09-11T04:25:32.650Z,83.73
2017-09-11T04:26:41.476Z,83.83
2017-09-11T04:27:50.308Z,83.83
2017-09-11T04:28:59.134Z,83.36
2017-09-11T04:30:07.962Z,83.83
2017-09-11T04:31:16.793Z,83.73
2017-09-11T04:32:25.620Z,83.64
2017-09-11T04:33:34.771Z,83.83
2017-09-11T04:34:43.955Z,83.73
2017-09-11T04:35:52.784Z,83.93
2017-09-11T04:37:01.612Z,83.73
2017-09-11T04:38:10.439Z,83.93
2017-09-11T04:39:19.590Z,83.64
2017-09-11T04:40:28.417Z,83.64
2017-09-11T04:41:37.240Z,83.64
2017-09-11T04:42:46.068Z,83.73
2017-09-11T04:43:54.899Z,83.64
2017-09-11T04:45:03.725Z,83.73
2017-09-11T04:46:12.553Z,83.54
2017-09-11T04:47:21.384Z,83.83
2017-09-11T04:48:30.214Z,84.12
2017-09-11T04:49:39.042Z,83.83
2017-09-11T04:50:47.872Z,83.64
2017-09-11T04:51:56.701Z,83.69
2017-09-11T04:53:05.528Z,84.12
2017-09-11T04:54:14.356Z,83.6
2017-09-11T04:55:23.190Z,83.54
2017-09-11T04:56:32.013Z,84.08
2017-09-11T04:57:40.846Z,84.02
2017-09-11T04:58:49.669Z,83.98
2017-09-11T04:59:58.497Z,84.27
2017-09-11T05:01:07.322Z,84.02
2017-09-11T05:02:16.154Z,84.02
2017-09-11T05:03:25.299Z,84.31
2017-09-11T05:04:34.132Z,84.22
2017-09-11T05:05:42.955Z,84.27
2017-09-11T05:06:51.779Z,83.89
2017-09-11T05:08:00.610Z,83.98
2017-09-11T05:09:09.435Z,83.79
2017-09-11T05:10:18.259Z,84.22
2017-09-11T05:11:27.083Z,84.27
2017-09-11T05:12:35.915Z,84.02
2017-09-11T05:13:44.740Z,84.02
2017-09-11T05:14:53.571Z,83.64
2017-09-11T05:16:02.399Z,83.79
2017-09-11T05:17:11.221Z,83.6
2017-09-11T05:18:20.050Z,83.79
2017-09-11T05:19:28.877Z,83.64
2017-09-11T05:20:37.706Z,83.54
2017-09-11T05:21:46.534Z,83.6
2017-09-11T05:22:55.362Z,83.54
2017-09-11T05:24:04.191Z,83.64
2017-09-11T05:25:13.016Z,83.83
2017-09-11T05:26:21.847Z,83.6
2017-09-11T05:27:30.670Z,83.79
2017-09-11T05:28:39.502Z,83.79
2017-09-11T05:29:48.332Z,83.69
2017-09-11T05:30:57.156Z,83.69
2017-09-11T05:32:06.316Z,83.64
2017-09-11T05:33:15.144Z,83.22
2017-09-11T05:34:23.968Z,83.73
2017-09-11T05:35:32.794Z,83.31
2017-09-11T05:36:41.631Z,83.36
2017-09-11T05:37:50.449Z,83.64
2017-09-11T05:38:59.277Z,83.36
2017-09-11T05:40:08.109Z,83.16
2017-09-11T05:41:16.934Z,83.26
2017-09-11T05:42:25.761Z,83.06
2017-09-11T05:43:34.589Z,83.26
2017-09-11T05:44:43.417Z,83.06
2017-09-11T05:45:52.246Z,83.36
2017-09-11T05:47:01.073Z,82.78
2017-09-11T05:48:09.897Z,82.59
2017-09-11T05:49:18.729Z,82.87
2017-09-11T05:50:27.558Z,82.59
2017-09-11T05:51:36.708Z,82.59
2017-09-11T05:52:45.536Z,82.49
2017-09-11T05:53:54.362Z,82.59
2017-09-11T05:55:03.194Z,82.4
2017-09-11T05:56:12.020Z,82.59
2017-09-11T05:57:20.852Z,81.67
2017-09-11T05:58:29.678Z,81.82
2017-09-11T05:59:38.507Z,81.96
2017-09-11T06:00:47.342Z,81.92
2017-09-11T06:01:56.166Z,81.86
2017-09-11T06:03:04.992Z,81.67
2017-09-11T06:04:14.140Z,81.57
2017-09-11T06:05:22.970Z,81.57
2017-09-11T06:06:31.792Z,81.57
2017-09-11T06:07:40.626Z,81.38
2017-09-11T06:08:49.457Z,81.57
2017-09-11T06:09:58.284Z,81.38
2017-09-11T06:11:07.110Z,81.2
2017-09-11T06:12:15.934Z,81.2
2017-09-11T06:13:24.768Z,80.9
2017-09-11T06:14:33.597Z,81
2017-09-11T06:15:42.429Z,80.62
2017-09-11T06:16:51.251Z,80.52
2017-09-11T06:18:00.084Z,79.85
2017-09-11T06:19:08.914Z,79.95
2017-09-11T06:20:17.743Z,79.95
2017-09-11T06:21:26.575Z,80.24
2017-09-11T06:22:35.404Z,79.66
2017-09-11T06:23:44.233Z,79.66
2017-09-11T06:24:53.062Z,79.51
2017-09-11T06:26:01.890Z,79.75
2017-09-11T06:27:10.719Z,79.6
2017-09-11T06:28:19.549Z,79.13
2017-09-11T06:29:28.378Z,79.32
2017-09-11T06:30:37.205Z,79.03
2017-09-11T06:31:46.034Z,79.03
2017-09-11T06:32:54.863Z,78.84
2017-09-11T06:34:03.686Z,78.64
2017-09-11T06:35:12.519Z,78.64
2017-09-11T06:36:21.342Z,78.64
2017-09-11T06:37:30.177Z,78.84
2017-09-11T06:38:39.011Z,78.55
2017-09-11T06:39:47.834Z,78.17
2017-09-11T06:40:56.664Z,78.27
2017-09-11T06:42:05.487Z,77.59
2017-09-11T06:43:14.314Z,77.88
2017-09-11T06:44:23.143Z,77.88
2017-09-11T06:45:31.978Z,77.92
2017-09-11T06:46:40.798Z,77.15
2017-09-11T06:47:49.629Z,77.44
2017-09-11T06:48:58.450Z,77.53
2017-09-11T06:50:07.279Z,77.25
2017-09-11T06:51:16.110Z,77.15
2017-09-11T06:52:24.938Z,76.67
2017-09-11T06:53:33.766Z,77.06
2017-09-11T06:54:42.598Z,77.25
2017-09-11T06:55:51.427Z,76.77
2017-09-11T06:57:00.253Z,76.67
2017-09-11T06:58:09.085Z,76.96
2017-09-11T06:59:17.914Z,76.48
2017-09-11T07:00:26.738Z,76.39
2017-09-11T07:01:35.891Z,76.19
2017-09-11T07:02:44.720Z,75.9
2017-09-11T07:03:53.549Z,76.1
2017-09-11T07:05:02.377Z,76.39
2017-09-11T07:06:11.207Z,75.75
2017-09-11T07:07:20.034Z,75.71
2017-09-11T07:08:28.861Z,75.43
2017-09-11T07:09:37.691Z,75.62
2017-09-11T07:10:46.523Z,75.62
2017-09-11T07:11:55.356Z,75.62
2017-09-11T07:13:04.183Z,75.75
2017-09-11T07:14:13.015Z,75.62
2017-09-11T07:15:21.843Z,75.85
2017-09-11T07:16:30.675Z,75.81
2017-09-11T07:17:39.821Z,75.71
2017-09-11T07:18:48.651Z,75.65
2017-09-11T07:19:57.488Z,75.81
2017-09-11T07:21:06.312Z,75.62
2017-09-11T07:22:15.142Z,76.1
2017-09-11T07:23:23.975Z,76
2017-09-11T07:24:32.801Z,76.48
2017-09-11T07:25:41.961Z,76.42
2017-09-11T07:26:50.798Z,76.81
2017-09-11T07:27:59.628Z,76.81
2017-09-11T07:29:08.453Z,77
2017-09-11T07:30:17.288Z,76.81
2017-09-11T07:31:26.117Z,76.71
2017-09-11T07:32:34.954Z,76.62
2017-09-11T07:33:43.784Z,76.62
2017-09-11T07:34:52.618Z,76.81
2017-09-11T07:36:01.447Z,76.9
2017-09-11T07:37:10.275Z,76.42
2017-09-11T07:38:19.101Z,76.42
2017-09-11T07:39:27.930Z,76.32
2017-09-11T07:40:36.767Z,76.62
2017-09-11T07:41:45.596Z,76.32
2017-09-11T07:42:54.427Z,76.32
2017-09-11T07:44:03.252Z,75.85
2017-09-11T07:45:12.084Z,75.95
2017-09-11T07:46:20.910Z,76.04
2017-09-11T07:47:29.746Z,75.27
2017-09-11T07:48:38.573Z,75.56
2017-09-11T07:49:47.723Z,75.4
2017-09-11T07:50:56.554Z,75.46
2017-09-11T07:52:05.387Z,75.37
2017-09-11T07:53:14.219Z,75.5
2017-09-11T07:54:23.046Z,75.46
2017-09-11T07:55:31.871Z,75.4
2017-09-11T07:56:40.702Z,75.5
2017-09-11T07:57:49.535Z,75.4
2017-09-11T07:58:58.369Z,75.21
2017-09-11T08:00:07.195Z,75.02
2017-09-11T08:01:16.028Z,74.73
2017-09-11T08:02:24.854Z,74.93
2017-09-11T08:03:33.684Z,75.21
2017-09-11T08:04:42.515Z,74.54
2017-09-11T08:05:51.672Z,74.35
2017-09-11T08:07:00.498Z,74.44
2017-09-11T08:08:09.329Z,74.64
2017-09-11T08:09:18.163Z,74.44
2017-09-11T08:10:26.991Z,74.73
2017-09-11T08:11:35.823Z,74.35
2017-09-11T08:12:44.651Z,74.26
2017-09-11T08:13:53.477Z,73.97
2017-09-11T08:15:02.307Z,74.19
2017-09-11T08:16:11.135Z,74.19
2017-09-11T08:17:19.967Z,74.29
2017-09-11T08:18:28.796Z,73.81
2017-09-11T08:19:37.627Z,73.72
2017-09-11T08:20:46.455Z,73.43
2017-09-11T08:21:55.288Z,73.33
2017-09-11T08:23:04.118Z,72.95
2017-09-11T08:24:12.941Z,72.95
2017-09-11T08:25:21.772Z,73.04
2017-09-11T08:26:30.600Z,73.14
2017-09-11T08:27:39.432Z,72.47
2017-09-11T08:28:48.257Z,72.56
2017-09-11T08:29:57.094Z,72.56
2017-09-11T08:31:05.920Z,72.47
2017-09-11T08:32:14.752Z,72.47
2017-09-11T08:33:23.580Z,72.18
2017-09-11T08:34:32.409Z,71.89
2017-09-11T08:35:41.244Z,72.08
2017-09-11T08:36:50.069Z,71.8
2017-09-11T08:37:58.904Z,72.02
2017-09-11T08:39:07.729Z,72.22
2017-09-11T08:40:16.560Z,71.89
2017-09-11T08:41:25.389Z,71.7
2017-09-11T08:42:34.222Z,71.89
2017-09-11T08:43:43.049Z,71.8
2017-09-11T08:44:51.882Z,71.83
2017-09-11T08:46:00.711Z,71.8
2017-09-11T08:47:09.541Z,71.93
2017-09-11T08:48:18.373Z,71.55
2017-09-11T08:49:27.203Z,71.45
2017-09-11T08:50:36.031Z,71.61
2017-09-11T08:51:44.866Z,70.87
2017-09-11T08:52:53.694Z,70.68
2017-09-11T08:54:02.525Z,70.97
2017-09-11T08:55:11.356Z,70.39
2017-09-11T08:56:20.189Z,70.01
2017-09-11T08:57:29.337Z,70.29
2017-09-11T08:58:38.170Z,70.39
2017-09-11T08:59:46.999Z,69.72
2017-09-11T09:00:55.826Z,69.62
2017-09-11T09:02:04.661Z,69.91
2017-09-11T09:03:13.489Z,70.01
2017-09-11T09:04:22.345Z,70.1
2017-09-11T09:05:31.148Z,69.91
2017-09-11T09:06:39.979Z,69.62
2017-09-11T09:07:48.804Z,69.91
2017-09-11T09:08:57.637Z,69.72
2017-09-11T09:10:06.468Z,69.62
2017-09-11T09:11:15.292Z,69.72
2017-09-11T09:12:24.124Z,69.24
2017-09-11T09:13:32.956Z,69.43
2017-09-11T09:14:41.786Z,69.43
2017-09-11T09:15:50.620Z,69.24
2017-09-11T09:16:59.453Z,69.34
2017-09-11T09:18:08.285Z,69.53
2017-09-11T09:19:17.109Z,69.34
2017-09-11T09:20:25.942Z,69.24
2017-09-11T09:21:34.770Z,69.34
2017-09-11T09:22:43.605Z,69.24
2017-09-11T09:23:52.437Z,68.95
2017-09-11T09:25:01.271Z,68.76
2017-09-11T09:26:10.099Z,68.85
2017-09-11T09:27:18.932Z,68.6
2017-09-11T09:28:27.763Z,68.57
2017-09-11T09:29:36.594Z,68.89
2017-09-11T09:30:45.425Z,67.9
2017-09-11T09:31:54.255Z,67.99
2017-09-11T09:33:03.089Z,68.12
2017-09-11T09:34:11.918Z,67.51
2017-09-11T09:35:20.749Z,67.41
2017-09-11T09:36:29.579Z,67.41
2017-09-11T09:37:38.414Z,67.45
2017-09-11T09:38:47.241Z,67.16
2017-09-11T09:39:56.072Z,67.45
2017-09-11T09:41:04.907Z,67.64
2017-09-11T09:42:13.741Z,67.16
2017-09-11T09:43:22.570Z,66.58
2017-09-11T09:44:31.407Z,66.87
2017-09-11T09:45:40.239Z,66.97
2017-09-11T09:46:49.063Z,66.97
2017-09-11T09:47:57.896Z,66.97
2017-09-11T09:49:06.733Z,66.97
2017-09-11T09:50:15.557Z,67.07
2017-09-11T09:51:24.391Z,67.07
2017-09-11T09:52:33.217Z,66.77
2017-09-11T09:53:42.047Z,66.68
2017-09-11T09:54:50.880Z,67.07
2017-09-11T09:55:59.711Z,67.16
2017-09-11T09:57:08.540Z,67.25
2017-09-11T09:58:17.372Z,67.07
2017-09-11T09:59:26.201Z,66.97
2017-09-11T10:00:35.024Z,66.87
2017-09-11T10:01:43.860Z,67.16
2017-09-11T10:02:52.689Z,66.87
2017-09-11T10:04:01.518Z,66.68
2017-09-11T10:05:10.349Z,66.77
2017-09-11T10:06:19.180Z,67.07
2017-09-11T10:07:28.011Z,66.87
2017-09-11T10:08:36.845Z,66.2
2017-09-11T10:09:45.678Z,66.61
2017-09-11T10:10:54.506Z,66.14
2017-09-11T10:12:03.338Z,64.98
2017-09-11T10:13:12.171Z,65.17
2017-09-11T10:14:21.326Z,65.17
2017-09-11T10:15:30.156Z,65.37
2017-09-11T10:16:38.990Z,65.27
2017-09-11T10:17:47.826Z,65.37
2017-09-11T10:18:56.654Z,65.17
2017-09-11T10:20:05.490Z,65.08
2017-09-11T10:21:14.317Z,65.46
2017-09-11T10:22:23.150Z,65.27
2017-09-11T10:23:31.981Z,64.98
2017-09-11T10:24:41.136Z,64.79
2017-09-11T10:25:49.965Z,64.34
2017-09-11T10:26:58.796Z,64.22
2017-09-11T10:28:07.624Z,64.5
2017-09-11T10:29:16.452Z,64.6
2017-09-11T10:30:25.289Z,64.73
2017-09-11T10:31:34.118Z,64.22
2017-09-11T10:32:42.952Z,64.63
2017-09-11T10:33:51.782Z,64.63
2017-09-11T10:35:00.616Z,64.05
2017-09-11T10:36:09.447Z,64.25
2017-09-11T10:37:18.281Z,64.43
2017-09-11T10:38:27.110Z,64.05
2017-09-11T10:39:35.946Z,63.95
2017-09-11T10:40:44.780Z,63.67
2017-09-11T10:41:53.610Z,63.67
2017-09-11T10:43:02.444Z,63.67
2017-09-11T10:44:11.277Z,63.18
2017-09-11T10:45:20.111Z,63.09
2017-09-11T10:46:28.940Z,62.64
2017-09-11T10:47:37.773Z,62.54
2017-09-11T10:48:46.606Z,62.83
2017-09-11T10:49:55.440Z,62.16
2017-09-11T10:51:04.276Z,62.26
2017-09-11T10:52:13.434Z,62.35
2017-09-11T10:53:22.585Z,61.87
2017-09-11T10:54:31.413Z,61.29
2017-09-11T10:55:40.247Z,60.81
2017-09-11T10:56:49.077Z,60.91
2017-09-11T10:57:57.913Z,60.62
2017-09-11T10:59:06.742Z,60.62
2017-09-11T11:00:15.572Z,60.81
2017-09-11T11:01:24.405Z,60.91
2017-09-11T11:02:33.241Z,60.81
2017-09-11T11:03:42.068Z,60.24
2017-09-11T11:04:50.905Z,59.85
2017-09-11T11:05:59.733Z,59.94
2017-09-11T11:07:08.569Z,59.94
2017-09-11T11:08:17.401Z,60.33
2017-09-11T11:09:26.239Z,60.33
2017-09-11T11:10:35.071Z,60.24
2017-09-11T11:11:43.904Z,60.46
2017-09-11T11:12:52.733Z,60.07
2017-09-11T11:14:01.569Z,59.78
2017-09-11T11:15:10.406Z,59.97
2017-09-11T11:16:19.238Z,59.69
2017-09-11T11:17:28.065Z,59.69
2017-09-11T11:18:36.901Z,59.97
2017-09-11T11:19:46.056Z,59.11
2017-09-11T11:20:54.888Z,59.3
2017-09-11T11:22:03.716Z,59.49
2017-09-11T11:23:12.549Z,59.4
2017-09-11T11:24:21.373Z,59.78
2017-09-11T11:25:30.208Z,59.49
2017-09-11T11:26:39.038Z,58.63
2017-09-11T11:27:47.867Z,58.63
2017-09-11T11:28:56.698Z,58.92
2017-09-11T11:30:05.536Z,58.92
2017-09-11T11:31:14.357Z,58.53
2017-09-11T11:32:23.520Z,59.01
2017-09-11T11:33:32.348Z,58.24
2017-09-11T11:34:41.182Z,57.86
2017-09-11T11:35:50.014Z,58.15
2017-09-11T11:36:58.847Z,57.57
2017-09-11T11:38:07.676Z,57.67
2017-09-11T11:39:16.508Z,57.69
2017-09-11T11:40:25.340Z,57.12
2017-09-11T11:41:34.172Z,57.21
2017-09-11T11:42:43.008Z,57.6
2017-09-11T11:43:51.841Z,57.5
2017-09-11T11:45:00.673Z,57.69
2017-09-11T11:46:09.507Z,57.6
2017-09-11T11:47:18.339Z,57.67
2017-09-11T11:48:27.169Z,57.28
2017-09-11T11:49:35.998Z,57.47
2017-09-11T11:50:44.832Z,57.47
2017-09-11T11:51:53.664Z,57.47
2017-09-11T11:53:02.494Z,57.86
2017-09-11T11:54:11.325Z,58.15
2017-09-11T11:55:20.158Z,58.34
2017-09-11T11:56:28.994Z,58.05
2017-09-11T11:57:37.822Z,58.05
2017-09-11T11:58:46.656Z,58.15
2017-09-11T11:59:55.489Z,57.67
2017-09-11T12:01:04.316Z,57.57
2017-09-11T12:02:13.149Z,57.18
2017-09-11T12:03:21.983Z,57.37
2017-09-11T12:04:30.819Z,57.95
2017-09-11T12:05:39.649Z,58.05
2017-09-11T12:06:48.480Z,58.34
2017-09-11T12:07:57.316Z,58.05
2017-09-11T12:09:06.150Z,58.24
2017-09-11T12:10:15.303Z,58.53
2017-09-11T12:11:24.134Z,58.44
2017-09-11T12:12:32.965Z,57.95
2017-09-11T12:13:41.792Z,58.24
2017-09-11T12:14:50.626Z,58.34
2017-09-11T12:15:59.463Z,58.34
2017-09-11T12:17:08.293Z,58.92
2017-09-11T12:18:17.129Z,58.82
2017-09-11T12:19:26.282Z,58.92
2017-09-11T12:20:35.118Z,58.72
2017-09-11T12:21:43.953Z,58.82
2017-09-11T12:22:52.786Z,58.63
2017-09-11T12:24:01.614Z,58.72
2017-09-11T12:25:10.451Z,58.82
2017-09-11T12:26:19.284Z,58.72
2017-09-11T12:27:28.123Z,58.72
2017-09-11T12:28:36.953Z,59.49
2017-09-11T12:29:45.787Z,59.69
2017-09-11T12:30:54.624Z,59.4
2017-09-11T12:32:03.779Z,59.2
2017-09-11T12:33:12.614Z,59.49
2017-09-11T12:34:21.449Z,59.49
2017-09-11T12:35:30.279Z,59.4
2017-09-11T12:36:39.111Z,59.85
2017-09-11T12:37:47.950Z,59.75
2017-09-11T12:38:56.778Z,59.66
2017-09-11T12:40:05.610Z,59.66
2017-09-11T12:41:14.438Z,59.66
2017-09-11T12:42:23.275Z,59.47
2017-09-11T12:43:32.107Z,59.56
2017-09-11T12:44:40.934Z,59.56
2017-09-11T12:45:49.764Z,59.56
2017-09-11T12:46:58.927Z,59.47
2017-09-11T12:48:07.758Z,59.94
2017-09-11T12:49:16.586Z,59.85
2017-09-11T12:50:25.418Z,60.04
2017-09-11T12:51:34.249Z,60.24
2017-09-11T12:52:43.081Z,60.33
2017-09-11T12:53:51.911Z,60.14
2017-09-11T12:55:00.747Z,60.24
2017-09-11T12:56:09.579Z,60.04
2017-09-11T12:57:18.407Z,60.24
2017-09-11T12:58:27.244Z,60.24
2017-09-11T12:59:36.078Z,60.81
2017-09-11T13:00:44.909Z,61.77
2017-09-11T13:01:53.739Z,62.74
2017-09-11T13:03:02.566Z,63.79
2017-09-11T13:04:11.397Z,64.47
2017-09-11T13:05:20.230Z,64.56
2017-09-11T13:06:29.066Z,65.43
2017-09-11T13:07:37.897Z,66.46
2017-09-11T13:08:46.729Z,67.03
2017-09-11T13:09:55.559Z,67.8
2017-09-11T13:11:04.387Z,68.57
2017-09-11T13:12:13.222Z,68.09
2017-09-11T13:13:22.058Z,68.06
2017-09-11T13:14:30.885Z,67.51
2017-09-11T13:15:39.719Z,67.19
2017-09-11T13:16:48.866Z,66.91
2017-09-11T13:17:57.699Z,67.13
2017-09-11T13:19:06.530Z,67.13
2017-09-11T13:20:15.369Z,67.03
2017-09-11T13:21:24.195Z,66.94
2017-09-11T13:22:33.024Z,66.65
2017-09-11T13:23:41.860Z,66.74
2017-09-11T13:24:50.693Z,66.36
2017-09-11T13:25:59.529Z,66.65
2017-09-11T13:27:08.359Z,67.03
2017-09-11T13:28:17.188Z,66.55
2017-09-11T13:29:26.022Z,66.46
2017-09-11T13:30:34.855Z,66.46
2017-09-11T13:31:43.688Z,66.17
2017-09-11T13:32:52.523Z,66.55
2017-09-11T13:34:01.355Z,66.36
2017-09-11T13:35:10.188Z,65.69
2017-09-11T13:36:19.014Z,65.2
2017-09-11T13:37:28.173Z,65.2
2017-09-11T13:38:36.998Z,65.43
2017-09-11T13:39:45.834Z,65.33
2017-09-11T13:40:54.664Z,65.01
2017-09-11T13:42:03.507Z,64.82
2017-09-11T13:43:12.328Z,64.95
2017-09-11T13:44:21.160Z,64.76
2017-09-11T13:45:29.995Z,64.28
2017-09-11T13:46:38.829Z,64.37
2017-09-11T13:47:47.666Z,63.6
2017-09-11T13:48:56.496Z,63.12
2017-09-11T13:50:05.328Z,62.74
2017-09-11T13:51:14.164Z,62.83
2017-09-11T13:52:22.994Z,62.45
2017-09-11T13:53:31.828Z,62.45
2017-09-11T13:54:40.660Z,62.29
2017-09-11T13:55:49.494Z,60.84
2017-09-11T13:56:58.320Z,61.1
2017-09-11T13:58:07.154Z,61.49
2017-09-11T13:59:15.987Z,61.58
2017-09-11T14:00:24.816Z,61.39
2017-09-11T14:01:33.656Z,61.39
2017-09-11T14:02:42.487Z,61.58
2017-09-11T14:03:51.316Z,61.68
2017-09-11T14:05:00.146Z,62.06
2017-09-11T14:06:08.979Z,62.35
2017-09-11T14:07:17.815Z,62.16
2017-09-11T14:08:26.970Z,62.16
2017-09-11T14:09:35.807Z,62.35
2017-09-11T14:10:44.634Z,62.16
2017-09-11T14:11:53.465Z,62.16
2017-09-11T14:13:02.300Z,62.45
2017-09-11T14:14:11.129Z,62.26
2017-09-11T14:15:19.966Z,62.26
2017-09-11T14:16:28.796Z,62.35
2017-09-11T14:17:37.625Z,62.54
2017-09-11T14:18:46.459Z,62.74
2017-09-11T14:19:55.294Z,62.35
2017-09-11T14:21:04.129Z,62.35
2017-09-11T14:22:12.957Z,62.64
2017-09-11T14:23:21.790Z,62.64
2017-09-11T14:24:30.614Z,62.26
2017-09-11T14:25:39.452Z,62.54
2017-09-11T14:26:48.280Z,62.26
2017-09-11T14:27:57.109Z,62.26
2017-09-11T14:29:05.943Z,62.35
2017-09-11T14:30:14.776Z,62.16
2017-09-11T14:31:23.614Z,62.26
2017-09-11T14:32:32.441Z,62.06
2017-09-11T14:33:41.270Z,62.74
2017-09-11T14:34:50.106Z,62.74
2017-09-11T14:35:58.938Z,62.83
2017-09-11T14:37:07.767Z,62.8
2017-09-11T14:38:16.603Z,62.93
2017-09-11T14:39:25.432Z,62.99
2017-09-11T14:40:34.259Z,62.8
2017-09-11T14:41:43.095Z,62.71
2017-09-11T14:42:51.928Z,63.12
2017-09-11T14:44:00.758Z,62.99
2017-09-11T14:45:09.911Z,63.02
2017-09-11T14:46:18.738Z,62.8
2017-09-11T14:47:27.570Z,62.9
2017-09-11T14:48:36.400Z,63.38
2017-09-11T14:49:45.236Z,63.22